createdAt,value
2023-03-26T00:01:22.888Z,8.88
2023-03-26T00:03:51.343Z,9.02
2023-03-26T00:06:19.498Z,8.95
2023-03-26T00:08:47.280Z,8.96
2023-03-26T00:11:16.029Z,8.99
2023-03-26T00:13:44.812Z,8.85
2023-03-26T00:16:13.160Z,8.79
2023-03-26T00:18:42.892Z,8.70
2023-03-26T00:21:13.598Z,8.82
2023-03-26T00:23:41.632Z,8.85
2023-03-26T00:26:09.935Z,8.74
2023-03-26T00:28:37.815Z,8.63
2023-03-26T00:31:07.634Z,8.50
2023-03-26T00:33:35.567Z,8.56
2023-03-26T00:36:07.014Z,8.38
2023-03-26T00:38:34.829Z,7.95
2023-03-26T00:41:02.165Z,7.75
2023-03-26T00:43:29.870Z,7.77
2023-03-26T00:45:57.586Z,7.83
2023-03-26T00:48:37.912Z,7.78
2023-03-26T00:51:14.701Z,7.84
2023-03-26T00:53:43.396Z,7.94
2023-03-26T00:56:11.228Z,7.92
2023-03-26T00:58:39.360Z,7.95
2023-03-26T01:01:09.158Z,7.94
2023-03-26T01:03:38.539Z,8.05
2023-03-26T01:06:08.061Z,7.98
2023-03-26T01:08:39.868Z,8.00
2023-03-26T01:11:10.794Z,7.90
2023-03-26T01:13:39.148Z,7.81
2023-03-26T01:16:14.234Z,7.88
2023-03-26T01:18:42.225Z,8.06
2023-03-26T01:21:09.703Z,8.23
2023-03-26T01:23:44.755Z,8.10
2023-03-26T01:26:26.573Z,8.20
2023-03-26T01:28:56.754Z,7.98
2023-03-26T01:31:30.129Z,7.92
2023-03-26T01:34:04.094Z,8.01
2023-03-26T01:36:41.826Z,7.98
2023-03-26T01:39:16.547Z,7.99
2023-03-26T01:41:48.877Z,8.06
2023-03-26T01:44:23.104Z,8.15
2023-03-26T01:46:52.179Z,8.26
2023-03-26T01:49:20.465Z,8.23
2023-03-26T01:51:48.279Z,8.26
2023-03-26T01:54:19.859Z,8.39
2023-03-26T01:57:00.528Z,8.45
2023-03-26T01:59:45.408Z,8.49
2023-03-26T02:02:15.777Z,8.54
2023-03-26T02:04:53.122Z,8.50
2023-03-26T02:07:25.504Z,8.44
2023-03-26T02:10:01.574Z,8.53
2023-03-26T02:12:30.794Z,8.40
2023-03-26T02:15:01.187Z,8.48
2023-03-26T02:17:28.981Z,8.50
2023-03-26T02:19:57.012Z,8.38
2023-03-26T02:22:24.469Z,8.48
2023-03-26T02:24:52.245Z,8.57
2023-03-26T02:27:19.571Z,8.65
2023-03-26T02:29:48.792Z,8.56
2023-03-26T02:32:16.122Z,8.59
2023-03-26T02:34:43.832Z,8.53
2023-03-26T02:37:11.181Z,8.47
2023-03-26T02:39:38.877Z,8.49
2023-03-26T02:42:06.362Z,8.67
2023-03-26T02:44:34.174Z,8.66
2023-03-26T02:47:03.031Z,8.75
2023-03-26T02:49:30.816Z,8.76
2023-03-26T02:51:58.158Z,8.83
2023-03-26T02:54:25.969Z,8.89
2023-03-26T02:56:53.639Z,8.78
2023-03-26T02:59:21.437Z,8.78
2023-03-26T03:01:48.744Z,8.68
2023-03-26T03:04:17.894Z,8.71
2023-03-26T03:06:45.348Z,8.74
2023-03-26T03:09:13.217Z,8.69
2023-03-26T03:11:41.286Z,8.78
2023-03-26T03:14:08.964Z,8.74
2023-03-26T03:16:36.386Z,8.72
2023-03-26T03:19:04.136Z,8.54
2023-03-26T03:21:32.985Z,8.59
2023-03-26T03:24:00.767Z,8.60
2023-03-26T03:26:28.506Z,8.67
2023-03-26T03:28:57.773Z,8.65
2023-03-26T03:31:26.546Z,8.67
2023-03-26T03:33:54.430Z,8.61
2023-03-26T03:36:23.599Z,8.72
2023-03-26T03:38:52.938Z,8.74
2023-03-26T03:41:20.331Z,8.69
2023-03-26T03:43:48.015Z,8.72
2023-03-26T03:46:15.435Z,8.73
2023-03-26T03:48:43.213Z,8.77
2023-03-26T03:51:10.553Z,8.80
2023-03-26T03:53:38.311Z,8.84
2023-03-26T03:56:08.226Z,8.88
2023-03-26T03:58:36.508Z,8.82
2023-03-26T04:01:03.925Z,8.75
2023-03-26T04:03:33.671Z,8.82
2023-03-26T04:06:02.168Z,8.97
2023-03-26T04:08:29.882Z,8.98
2023-03-26T04:10:57.266Z,9.00
2023-03-26T04:13:26.438Z,8.98
2023-03-26T04:15:54.350Z,8.90
2023-03-26T04:18:22.755Z,8.90
2023-03-26T04:20:50.038Z,8.86
2023-03-26T04:23:19.021Z,8.70
2023-03-26T04:25:50.091Z,8.54
2023-03-26T04:28:28.509Z,8.45
2023-03-26T04:30:58.074Z,8.41
2023-03-26T04:33:26.490Z,8.42
2023-03-26T04:35:54.208Z,8.31
2023-03-26T04:38:22.719Z,8.41
2023-03-26T04:40:50.139Z,8.40
2023-03-26T04:43:18.229Z,8.39
2023-03-26T04:45:47.017Z,8.27
2023-03-26T04:48:14.745Z,8.23
2023-03-26T04:50:43.234Z,8.19
2023-03-26T04:53:14.218Z,8.19
2023-03-26T04:55:47.122Z,8.31
2023-03-26T04:58:15.200Z,8.30
2023-03-26T05:00:42.954Z,8.28
2023-03-26T05:03:12.362Z,8.31
2023-03-26T05:05:40.195Z,8.38
2023-03-26T05:08:07.917Z,8.32
2023-03-26T05:10:35.346Z,8.27
2023-03-26T05:13:03.004Z,8.16
2023-03-26T05:15:30.374Z,8.15
2023-03-26T05:17:58.458Z,8.29
2023-03-26T05:20:29.334Z,8.31
2023-03-26T05:22:57.294Z,8.41
2023-03-26T05:25:24.637Z,8.34
2023-03-26T05:27:52.608Z,8.43
2023-03-26T05:30:21.777Z,8.32
2023-03-26T05:32:49.929Z,8.30
2023-03-26T05:35:18.309Z,8.32
2023-03-26T05:37:48.413Z,8.30
2023-03-26T05:40:16.348Z,8.31
2023-03-26T05:42:45.186Z,8.52
2023-03-26T05:45:14.630Z,8.69
2023-03-26T05:47:42.672Z,8.68
2023-03-26T05:50:12.073Z,8.55
2023-03-26T05:52:40.039Z,8.72
2023-03-26T05:55:09.711Z,8.98
2023-03-26T05:57:37.748Z,9.20
2023-03-26T06:00:07.396Z,9.23
2023-03-26T06:02:35.316Z,9.21
2023-03-26T06:05:02.887Z,9.45
2023-03-26T06:07:30.830Z,9.71
2023-03-26T06:09:58.164Z,9.86
2023-03-26T06:12:27.487Z,9.87
2023-03-26T06:14:54.847Z,9.78
2023-03-26T06:17:22.643Z,9.49
2023-03-26T06:19:50.292Z,9.44
2023-03-26T06:22:18.115Z,9.47
2023-03-26T06:24:45.628Z,9.58
2023-03-26T06:27:13.455Z,9.62
2023-03-26T06:29:42.380Z,9.69
2023-03-26T06:32:19.556Z,9.72
2023-03-26T06:34:47.770Z,9.74
2023-03-26T06:37:16.064Z,9.63
2023-03-26T06:39:43.496Z,9.62
2023-03-26T06:42:11.222Z,9.63
2023-03-26T06:44:38.989Z,9.65
2023-03-26T06:47:08.120Z,9.56
2023-03-26T06:49:35.586Z,9.50
2023-03-26T06:52:03.683Z,9.51
2023-03-26T06:54:31.112Z,9.49
2023-03-26T06:56:59.042Z,9.43
2023-03-26T06:59:26.530Z,9.52
2023-03-26T07:01:54.348Z,9.56
2023-03-26T07:04:23.147Z,9.69
2023-03-26T07:06:51.371Z,9.72
2023-03-26T07:09:18.817Z,9.95
2023-03-26T07:11:46.523Z,10.15
2023-03-26T07:14:13.941Z,9.97
2023-03-26T07:16:41.772Z,9.95
2023-03-26T07:19:09.190Z,9.93
2023-03-26T07:21:39.065Z,10.01
2023-03-26T07:24:09.321Z,10.10
2023-03-26T07:26:48.173Z,10.24
2023-03-26T07:29:23.921Z,10.26
2023-03-26T07:32:00.598Z,10.54
2023-03-26T07:34:40.470Z,10.71
2023-03-26T07:37:23.901Z,10.64
2023-03-26T07:39:55.687Z,10.64
2023-03-26T07:42:36.063Z,10.58
2023-03-26T07:45:19.535Z,10.56
2023-03-26T07:47:47.938Z,10.65
2023-03-26T07:50:18.773Z,10.77
2023-03-26T07:52:49.058Z,10.83
2023-03-26T07:55:18.071Z,10.78
2023-03-26T07:58:02.177Z,10.92
2023-03-26T08:00:34.869Z,10.87
2023-03-26T08:03:31.769Z,10.74
2023-03-26T08:06:07.604Z,10.78
2023-03-26T08:08:46.650Z,10.82
2023-03-26T08:11:21.633Z,11.13
2023-03-26T08:13:58.485Z,11.34
2023-03-26T08:16:31.300Z,11.28
2023-03-26T08:19:05.384Z,11.26
2023-03-26T08:21:38.166Z,11.33
2023-03-26T08:24:15.211Z,11.57
2023-03-26T08:26:50.316Z,11.77
2023-03-26T08:29:24.986Z,12.03
2023-03-26T08:31:54.052Z,12.17
2023-03-26T08:34:21.792Z,12.42
2023-03-26T08:36:49.162Z,12.46
2023-03-26T08:39:18.337Z,12.71
2023-03-26T08:42:20.755Z,12.85
2023-03-26T08:45:26.506Z,12.98
2023-03-26T08:48:26.699Z,13.03
2023-03-26T08:51:31.917Z,12.89
2023-03-26T08:54:40.617Z,12.73
2023-03-26T08:57:38.036Z,12.51
2023-03-26T09:00:25.465Z,12.28
2023-03-26T09:03:17.262Z,12.14
2023-03-26T09:06:08.824Z,12.30
2023-03-26T09:09:20.391Z,12.64
2023-03-26T09:12:31.293Z,12.65
2023-03-26T09:15:30.102Z,12.87
2023-03-26T09:18:44.508Z,12.83
2023-03-26T09:21:35.920Z,12.48
2023-03-26T09:24:40.858Z,12.40
2023-03-26T09:27:29.914Z,12.61
2023-03-26T09:30:33.092Z,12.69
2023-03-26T09:33:28.100Z,12.73
2023-03-26T09:36:18.462Z,12.70
2023-03-26T09:38:52.888Z,12.44
2023-03-26T09:41:33.732Z,12.23
2023-03-26T09:44:33.830Z,11.88
2023-03-26T09:47:27.723Z,11.51
2023-03-26T09:50:09.202Z,11.35
2023-03-26T09:52:55.484Z,11.12
2023-03-26T09:55:58.796Z,11.02
2023-03-26T09:58:47.624Z,10.96
2023-03-26T10:01:24.916Z,10.82
2023-03-26T10:04:02.494Z,11.01
2023-03-26T10:06:43.264Z,11.21
2023-03-26T10:09:38.931Z,11.44
2023-03-26T10:12:18.972Z,11.61
2023-03-26T10:14:54.906Z,11.59
2023-03-26T10:17:37.486Z,11.68
2023-03-26T10:20:26.651Z,11.73
2023-03-26T10:23:07.468Z,11.58
2023-03-26T10:25:53.514Z,11.48
2023-03-26T10:28:33.298Z,11.51
2023-03-26T10:31:29.914Z,11.52
2023-03-26T10:34:10.018Z,11.46
2023-03-26T10:37:10.122Z,11.88
2023-03-26T10:40:06.202Z,12.20
2023-03-26T10:42:49.406Z,12.33
2023-03-26T10:45:31.546Z,12.59
2023-03-26T10:48:36.771Z,12.56
2023-03-26T10:51:27.511Z,12.72
2023-03-26T10:54:00.916Z,13.28
2023-03-26T10:56:32.895Z,14.12
2023-03-26T10:59:05.827Z,14.62
2023-03-26T11:01:41.833Z,15.02
2023-03-26T11:04:23.439Z,15.40
2023-03-26T11:07:02.045Z,15.36
2023-03-26T11:09:40.887Z,15.37
2023-03-26T11:12:26.518Z,15.35
2023-03-26T11:15:16.515Z,15.48
2023-03-26T11:17:52.233Z,15.17
2023-03-26T11:20:31.819Z,15.20
2023-03-26T11:23:14.818Z,15.38
2023-03-26T11:25:57.634Z,15.84
2023-03-26T11:29:03.831Z,15.35
2023-03-26T11:31:51.714Z,15.25
2023-03-26T11:34:22.777Z,15.00
2023-03-26T11:36:52.923Z,14.84
2023-03-26T11:39:25.588Z,14.31
2023-03-26T11:42:04.120Z,13.98
2023-03-26T11:44:38.329Z,13.75
2023-03-26T11:47:09.671Z,13.45
2023-03-26T11:49:38.685Z,13.40
2023-03-26T11:52:06.562Z,13.44
2023-03-26T11:54:34.349Z,13.66
2023-03-26T11:57:07.179Z,14.00
2023-03-26T11:59:49.016Z,14.53
2023-03-26T12:02:29.210Z,14.72
2023-03-26T12:05:13.249Z,14.58
2023-03-26T12:07:46.527Z,14.80
2023-03-26T12:10:27.800Z,14.46
2023-03-26T12:12:59.977Z,14.54
2023-03-26T12:15:30.323Z,14.50
2023-03-26T12:17:59.326Z,14.68
2023-03-26T12:20:36.141Z,14.74
2023-03-26T12:23:05.684Z,14.58
2023-03-26T12:25:35.218Z,14.51
2023-03-26T12:28:05.745Z,14.65
2023-03-26T12:30:35.484Z,14.75
2023-03-26T12:33:06.074Z,14.69
2023-03-26T12:35:35.628Z,14.98
2023-03-26T12:38:21.839Z,15.13
2023-03-26T12:41:03.153Z,15.09
2023-03-26T12:44:55.788Z,15.52
2023-03-26T12:47:56.130Z,15.60
2023-03-26T12:49:16.054Z,16.02
2023-03-26T12:51:49.713Z,15.74
2023-03-26T12:54:43.180Z,15.66
2023-03-26T12:57:20.165Z,15.77
2023-03-26T13:00:42.392Z,15.77
2023-03-26T13:03:33.250Z,15.69
2023-03-26T13:06:22.914Z,15.66
2023-03-26T13:09:20.074Z,15.45
2023-03-26T13:12:00.697Z,15.60
2023-03-26T13:14:42.939Z,15.57
2023-03-26T13:17:22.117Z,15.83
2023-03-26T13:20:00.990Z,16.11
2023-03-26T13:22:39.824Z,16.45
2023-03-26T13:25:18.886Z,16.62
2023-03-26T13:27:58.390Z,16.98
2023-03-26T13:30:34.302Z,16.94
2023-03-26T13:33:26.711Z,16.74
2023-03-26T13:36:21.783Z,16.69
2023-03-26T13:39:02.635Z,16.58
2023-03-26T13:41:41.505Z,16.38
2023-03-26T13:44:17.513Z,16.78
2023-03-26T13:46:49.819Z,16.96
2023-03-26T13:49:25.192Z,16.94
2023-03-26T13:51:58.822Z,16.78
2023-03-26T13:54:32.761Z,16.70
2023-03-26T13:57:05.612Z,16.62
2023-03-26T13:59:38.523Z,16.57
2023-03-26T14:02:11.970Z,16.39
2023-03-26T14:04:46.425Z,16.52
2023-03-26T14:07:20.883Z,16.45
2023-03-26T14:09:55.486Z,16.08
2023-03-26T14:12:40.319Z,16.00
2023-03-26T14:15:13.442Z,15.53
2023-03-26T14:17:48.368Z,15.08
2023-03-26T14:20:41.664Z,15.07
2023-03-26T14:23:23.706Z,15.32
2023-03-26T14:26:06.760Z,15.28
2023-03-26T14:28:58.438Z,15.11
2023-03-26T14:31:31.318Z,15.02
2023-03-26T14:34:24.209Z,14.83
2023-03-26T14:37:29.756Z,14.87
2023-03-26T14:40:31.351Z,15.19
2023-03-26T14:43:12.196Z,15.59
2023-03-26T14:45:58.381Z,15.69
2023-03-26T14:49:10.072Z,15.81
2023-03-26T14:52:01.232Z,15.30
2023-03-26T14:54:33.246Z,15.41
2023-03-26T14:57:40.508Z,15.24
2023-03-26T15:00:37.425Z,14.98
2023-03-26T15:03:37.923Z,14.86
2023-03-26T15:06:40.621Z,14.84
2023-03-26T15:09:46.003Z,14.85
2023-03-26T15:12:27.562Z,14.81
2023-03-26T15:15:25.930Z,14.00
2023-03-26T15:18:41.316Z,13.31
2023-03-26T15:21:37.581Z,12.66
2023-03-26T15:24:34.881Z,12.35
2023-03-26T15:27:27.190Z,12.36
2023-03-26T15:30:31.231Z,12.17
2023-03-26T15:33:25.889Z,11.99
2023-03-26T15:36:27.590Z,12.13
2023-03-26T15:39:30.265Z,12.15
2023-03-26T15:42:07.864Z,12.00
2023-03-26T15:44:54.080Z,11.97
2023-03-26T15:47:54.355Z,12.51
2023-03-26T15:50:40.315Z,12.75
2023-03-26T15:53:22.376Z,12.63
2023-03-26T15:56:10.411Z,12.70
2023-03-26T15:58:48.998Z,12.99
2023-03-26T16:01:32.593Z,13.09
2023-03-26T16:04:18.289Z,13.09
2023-03-26T16:06:57.232Z,13.06
2023-03-26T16:09:49.996Z,12.98
2023-03-26T16:12:33.338Z,12.72
2023-03-26T16:15:26.751Z,12.92
2023-03-26T16:18:29.901Z,12.83
2023-03-26T16:21:32.785Z,12.52
2023-03-26T16:24:23.122Z,12.54
2023-03-26T16:27:05.826Z,12.53
2023-03-26T16:29:54.613Z,12.53
2023-03-26T16:32:27.097Z,12.46
2023-03-26T16:34:57.701Z,12.36
2023-03-26T16:37:42.825Z,12.39
2023-03-26T16:40:33.863Z,12.38
2023-03-26T16:43:18.727Z,12.31
2023-03-26T16:45:55.259Z,12.16
2023-03-26T16:48:32.423Z,12.30
2023-03-26T16:51:08.287Z,12.38
2023-03-26T16:53:42.618Z,12.25
2023-03-26T16:56:16.460Z,12.05
2023-03-26T16:58:54.442Z,12.03
2023-03-26T17:01:34.677Z,11.96
2023-03-26T17:04:09.269Z,12.15
2023-03-26T17:06:55.850Z,12.15
2023-03-26T17:09:33.430Z,12.05
2023-03-26T17:12:07.298Z,11.95
2023-03-26T17:14:46.484Z,12.07
2023-03-26T17:17:31.496Z,12.34
2023-03-26T17:20:09.521Z,12.37
2023-03-26T17:22:42.655Z,12.19
2023-03-26T17:25:25.485Z,12.08
2023-03-26T17:28:11.197Z,11.69
2023-03-26T17:30:53.215Z,11.29
2023-03-26T17:33:27.626Z,11.05
2023-03-26T17:36:28.135Z,10.58
2023-03-26T17:39:18.674Z,10.46
2023-03-26T17:42:05.108Z,10.40
2023-03-26T17:44:41.383Z,10.41
2023-03-26T17:47:27.072Z,10.27
2023-03-26T17:50:01.246Z,10.48
2023-03-26T17:52:41.837Z,10.39
2023-03-26T17:55:15.756Z,10.49
2023-03-26T17:57:45.575Z,10.67
2023-03-26T18:00:20.853Z,10.46
2023-03-26T18:02:54.552Z,10.62
2023-03-26T18:05:27.047Z,10.57
2023-03-26T18:08:33.728Z,10.50
2023-03-26T18:11:22.029Z,10.54
2023-03-26T18:14:32.604Z,10.70
2023-03-26T18:17:01.777Z,10.57
2023-03-26T18:19:29.685Z,10.64
2023-03-26T18:21:59.512Z,10.72
2023-03-26T18:24:30.677Z,10.67
2023-03-26T18:27:01.977Z,10.63
2023-03-26T18:29:31.205Z,10.37
2023-03-26T18:32:00.872Z,10.23
2023-03-26T18:34:31.454Z,10.21
2023-03-26T18:37:18.489Z,10.12
2023-03-26T18:39:58.754Z,9.97
2023-03-26T18:42:28.371Z,9.85
2023-03-26T18:45:00.857Z,9.67
2023-03-26T18:47:31.507Z,9.81
2023-03-26T18:50:00.229Z,9.61
2023-03-26T18:52:30.108Z,9.53
2023-03-26T18:54:59.976Z,9.59
2023-03-26T18:57:29.522Z,9.76
2023-03-26T19:00:08.564Z,9.74
2023-03-26T19:02:38.433Z,9.75
2023-03-26T19:05:07.360Z,9.71
2023-03-26T19:07:35.798Z,9.83
2023-03-26T19:10:05.769Z,9.73
2023-03-26T19:12:33.612Z,9.74
2023-03-26T19:15:05.169Z,9.89
2023-03-26T19:17:38.808Z,10.06
2023-03-26T19:20:13.105Z,10.09
2023-03-26T19:22:41.674Z,10.06
2023-03-26T19:25:21.291Z,10.09
2023-03-26T19:27:49.409Z,9.93
2023-03-26T19:30:23.077Z,9.69
2023-03-26T19:32:53.690Z,9.89
2023-03-26T19:35:22.925Z,9.94
2023-03-26T19:37:52.587Z,9.64
2023-03-26T19:40:23.340Z,9.77
2023-03-26T19:42:51.233Z,9.90
2023-03-26T19:45:20.536Z,9.93
2023-03-26T19:48:00.104Z,9.96
2023-03-26T19:50:35.089Z,10.11
2023-03-26T19:53:19.683Z,10.13
2023-03-26T19:55:56.361Z,10.10
2023-03-26T19:58:25.279Z,10.03
2023-03-26T20:00:53.109Z,10.17
2023-03-26T20:03:27.769Z,10.14
2023-03-26T20:05:55.388Z,10.27
2023-03-26T20:08:23.199Z,10.46
2023-03-26T20:10:50.832Z,10.57
2023-03-26T20:13:20.504Z,10.68
2023-03-26T20:16:04.993Z,10.61
2023-03-26T20:18:33.696Z,10.62
2023-03-26T20:21:01.266Z,10.53
2023-03-26T20:23:29.216Z,10.58
2023-03-26T20:25:57.015Z,10.52
2023-03-26T20:28:26.541Z,10.60
2023-03-26T20:30:54.794Z,10.77
2023-03-26T20:33:24.986Z,10.63
2023-03-26T20:35:52.576Z,10.61
2023-03-26T20:38:26.518Z,10.58
2023-03-26T20:41:00.497Z,10.64
2023-03-26T20:43:29.973Z,10.61
2023-03-26T20:45:57.828Z,10.68
2023-03-26T20:48:25.821Z,10.75
2023-03-26T20:50:53.403Z,10.73
2023-03-26T20:53:21.297Z,10.53
2023-03-26T20:55:51.080Z,10.65
2023-03-26T20:58:31.332Z,10.63
2023-03-26T21:01:02.066Z,10.49
2023-03-26T21:03:30.463Z,10.52
2023-03-26T21:06:00.543Z,10.47
2023-03-26T21:08:29.159Z,10.39
2023-03-26T21:10:58.169Z,10.38
2023-03-26T21:13:36.817Z,10.17
2023-03-26T21:16:07.370Z,10.13
2023-03-26T21:18:36.110Z,10.16
2023-03-26T21:21:21.589Z,10.05
2023-03-26T21:23:55.348Z,10.04
2023-03-26T21:26:28.661Z,9.87
2023-03-26T21:28:56.743Z,9.70
2023-03-26T21:31:26.467Z,9.68
2023-03-26T21:33:54.902Z,9.73
2023-03-26T21:36:25.924Z,9.88
2023-03-26T21:38:54.792Z,9.77
2023-03-26T21:41:33.167Z,9.80
2023-03-26T21:44:00.579Z,9.85
2023-03-26T21:46:30.320Z,9.83
2023-03-26T21:48:58.897Z,9.90
2023-03-26T21:51:27.102Z,9.75
2023-03-26T21:53:55.349Z,9.88
2023-03-26T21:56:37.451Z,9.86
2023-03-26T21:59:14.753Z,9.77
2023-03-26T22:01:51.177Z,9.73
2023-03-26T22:04:28.276Z,9.75
2023-03-26T22:06:59.562Z,9.87
2023-03-26T22:12:01.340Z,10.00
2023-03-26T22:14:29.229Z,9.79
2023-03-26T22:16:58.120Z,9.83
2023-03-26T22:19:25.943Z,9.63
2023-03-26T22:21:53.448Z,9.58
2023-03-26T22:24:21.265Z,9.58
2023-03-26T22:26:48.678Z,9.72
2023-03-26T22:29:16.957Z,9.57
2023-03-26T22:31:44.405Z,9.52
2023-03-26T22:34:13.683Z,9.52
2023-03-26T22:36:41.209Z,9.43
2023-03-26T22:39:09.152Z,9.43
2023-03-26T22:41:36.594Z,9.43
2023-03-26T22:44:16.822Z,9.38
2023-03-26T22:46:46.972Z,9.46
2023-03-26T22:49:16.169Z,9.47
2023-03-26T22:51:44.091Z,9.38
2023-03-26T22:54:12.015Z,9.30
2023-03-26T22:56:39.644Z,9.21
2023-03-26T22:59:07.818Z,9.16
2023-03-26T23:01:35.365Z,9.09
2023-03-26T23:04:03.300Z,9.12
2023-03-26T23:06:32.526Z,8.91
2023-03-26T23:09:00.339Z,8.96
2023-03-26T23:11:27.786Z,8.99
2023-03-26T23:13:55.653Z,9.15
2023-03-26T23:16:23.084Z,9.08
2023-03-26T23:18:50.936Z,9.04
2023-03-26T23:21:20.973Z,8.90
2023-03-26T23:23:50.577Z,9.17
2023-03-26T23:26:18.022Z,9.00
2023-03-26T23:28:45.930Z,9.00
2023-03-26T23:31:13.516Z,9.07
2023-03-26T23:33:42.173Z,8.96
2023-03-26T23:36:10.199Z,8.96
2023-03-26T23:38:43.252Z,8.93
2023-03-26T23:41:14.002Z,9.03
2023-03-26T23:43:53.694Z,8.92
2023-03-26T23:46:23.574Z,8.99
2023-03-26T23:48:51.971Z,8.97
2023-03-26T23:51:19.869Z,9.06
2023-03-26T23:53:49.031Z,8.94
2023-03-26T23:56:17.956Z,9.04
2023-03-26T23:58:45.829Z,9.04
